sensor_id;sensor_type;location;lat;lon;timestamp;temperature;humidity
51725;DHT22;37801;53.224;6.552;2023-05-02T00:01:13;10.30;1.00
51725;DHT22;37801;53.224;6.552;2023-05-02T00:03:39;10.20;30.10
51725;DHT22;37801;53.224;6.552;2023-05-02T00:06:06;10.20;59.10
51725;DHT22;37801;53.224;6.552;2023-05-02T00:08:32;10.30;74.80
51725;DHT22;37801;53.224;6.552;2023-05-02T00:10:58;10.30;84.60
51725;DHT22;37801;53.224;6.552;2023-05-02T00:13:24;10.20;93.20
51725;DHT22;37801;53.224;6.552;2023-05-02T00:15:49;10.10;82.70
51725;DHT22;37801;53.224;6.552;2023-05-02T00:18:15;10.10;88.70
51725;DHT22;37801;53.224;6.552;2023-05-02T00:20:41;10.00;78.70
51725;DHT22;37801;53.224;6.552;2023-05-02T00:23:07;10.00;67.20
51725;DHT22;37801;53.224;6.552;2023-05-02T00:25:32;9.90;61.20
51725;DHT22;37801;53.224;6.552;2023-05-02T00:27:58;10.00;65.50
51725;DHT22;37801;53.224;6.552;2023-05-02T00:30:24;9.90;56.20
51725;DHT22;37801;53.224;6.552;2023-05-02T00:32:49;9.90;51.20
51725;DHT22;37801;53.224;6.552;2023-05-02T00:35:15;9.90;39.20
51725;DHT22;37801;53.224;6.552;2023-05-02T00:37:41;9.80;41.10
51725;DHT22;37801;53.224;6.552;2023-05-02T00:40:07;9.90;37.40
51725;DHT22;37801;53.224;6.552;2023-05-02T00:42:33;9.90;24.30
51725;DHT22;37801;53.224;6.552;2023-05-02T00:45:01;9.80;32.40
51725;DHT22;37801;53.224;6.552;2023-05-02T00:47:28;9.90;32.40
51725;DHT22;37801;53.224;6.552;2023-05-02T00:49:53;10.00;33.70
51725;DHT22;37801;53.224;6.552;2023-05-02T00:52:19;9.90;20.20
51725;DHT22;37801;53.224;6.552;2023-05-02T00:54:46;9.90;22.30
51725;DHT22;37801;53.224;6.552;2023-05-02T00:57:12;10.00;12.30
51725;DHT22;37801;53.224;6.552;2023-05-02T00:59:38;9.90;26.40
51725;DHT22;37801;53.224;6.552;2023-05-02T01:02:58;10.00;32.10
51725;DHT22;37801;53.224;6.552;2023-05-02T01:05:07;10.00;25.60
51725;DHT22;37801;53.224;6.552;2023-05-02T01:13:12;10.00;1.00
51725;DHT22;37801;53.224;6.552;2023-05-02T01:15:39;10.00;1.00
51725;DHT22;37801;53.224;6.552;2023-05-02T01:18:08;9.90;1.00
51725;DHT22;37801;53.224;6.552;2023-05-02T01:20:37;9.90;1.00
51725;DHT22;37801;53.224;6.552;2023-05-02T01:23:12;9.80;1.00
51725;DHT22;37801;53.224;6.552;2023-05-02T01:28:59;9.70;1.00
51725;DHT22;37801;53.224;6.552;2023-05-02T01:31:28;9.70;1.00
51725;DHT22;37801;53.224;6.552;2023-05-02T01:33:55;9.70;1.00
51725;DHT22;37801;53.224;6.552;2023-05-02T01:36:25;9.60;1.00
51725;DHT22;37801;53.224;6.552;2023-05-02T01:38:53;9.50;1.00
51725;DHT22;37801;53.224;6.552;2023-05-02T01:41:20;9.50;1.00
51725;DHT22;37801;53.224;6.552;2023-05-02T01:43:47;9.40;1.00
51725;DHT22;37801;53.224;6.552;2023-05-02T01:46:13;9.30;1.00
51725;DHT22;37801;53.224;6.552;2023-05-02T01:48:43;9.20;1.00
51725;DHT22;37801;53.224;6.552;2023-05-02T01:51:10;9.20;1.00
51725;DHT22;37801;53.224;6.552;2023-05-02T01:53:37;9.10;1.00
51725;DHT22;37801;53.224;6.552;2023-05-02T01:56:04;9.10;1.00
51725;DHT22;37801;53.224;6.552;2023-05-02T01:58:31;9.10;1.00
51725;DHT22;37801;53.224;6.552;2023-05-02T02:00:59;9.10;1.00
51725;DHT22;37801;53.224;6.552;2023-05-02T02:03:28;9.00;1.00
51725;DHT22;37801;53.224;6.552;2023-05-02T02:05:55;9.00;1.00
51725;DHT22;37801;53.224;6.552;2023-05-02T02:08:23;9.00;1.00
51725;DHT22;37801;53.224;6.552;2023-05-02T02:10:55;9.00;1.00
51725;DHT22;37801;53.224;6.552;2023-05-02T02:13:27;9.10;1.00
51725;DHT22;37801;53.224;6.552;2023-05-02T02:15:58;9.00;1.00
51725;DHT22;37801;53.224;6.552;2023-05-02T02:18:26;9.10;1.00
51725;DHT22;37801;53.224;6.552;2023-05-02T02:20:54;9.00;99.90
51725;DHT22;37801;53.224;6.552;2023-05-02T02:23:25;9.00;99.90
51725;DHT22;37801;53.224;6.552;2023-05-02T02:25:53;9.00;99.90
51725;DHT22;37801;53.224;6.552;2023-05-02T02:28:20;8.90;99.90
51725;DHT22;37801;53.224;6.552;2023-05-02T02:30:46;8.90;99.90
51725;DHT22;37801;53.224;6.552;2023-05-02T02:33:11;8.90;99.90
51725;DHT22;37801;53.224;6.552;2023-05-02T02:35:41;8.80;99.90
51725;DHT22;37801;53.224;6.552;2023-05-02T02:40:56;8.80;1.00
51725;DHT22;37801;53.224;6.552;2023-05-02T02:46:33;8.70;99.90
51725;DHT22;37801;53.224;6.552;2023-05-02T02:49:09;8.70;99.90
51725;DHT22;37801;53.224;6.552;2023-05-02T02:54:32;8.70;99.90
51725;DHT22;37801;53.224;6.552;2023-05-02T02:57:14;8.70;99.90
51725;DHT22;37801;53.224;6.552;2023-05-02T02:59:47;8.60;99.90
51725;DHT22;37801;53.224;6.552;2023-05-02T03:02:16;8.60;99.90
51725;DHT22;37801;53.224;6.552;2023-05-02T03:04:45;8.50;99.90
51725;DHT22;37801;53.224;6.552;2023-05-02T03:07:11;8.60;99.90
51725;DHT22;37801;53.224;6.552;2023-05-02T03:09:45;8.50;24.20
51725;DHT22;37801;53.224;6.552;2023-05-02T03:12:11;8.50;96.40
51725;DHT22;37801;53.224;6.552;2023-05-02T03:14:37;8.60;99.90
51725;DHT22;37801;53.224;6.552;2023-05-02T03:17:03;8.50;1.00
51725;DHT22;37801;53.224;6.552;2023-05-02T03:19:29;8.50;1.00
51725;DHT22;37801;53.224;6.552;2023-05-02T03:21:55;8.50;18.80
51725;DHT22;37801;53.224;6.552;2023-05-02T03:24:21;8.50;1.00
51725;DHT22;37801;53.224;6.552;2023-05-02T03:26:47;8.50;1.00
51725;DHT22;37801;53.224;6.552;2023-05-02T03:29:13;8.60;1.00
51725;DHT22;37801;53.224;6.552;2023-05-02T03:31:40;8.50;1.00
51725;DHT22;37801;53.224;6.552;2023-05-02T03:34:05;8.60;1.00
51725;DHT22;37801;53.224;6.552;2023-05-02T03:36:31;8.50;1.00
51725;DHT22;37801;53.224;6.552;2023-05-02T03:38:57;8.50;99.90
51725;DHT22;37801;53.224;6.552;2023-05-02T03:41:22;8.50;99.90
51725;DHT22;37801;53.224;6.552;2023-05-02T03:43:50;8.50;1.00
51725;DHT22;37801;53.224;6.552;2023-05-02T03:46:15;8.50;1.00
51725;DHT22;37801;53.224;6.552;2023-05-02T03:48:41;8.50;99.90
51725;DHT22;37801;53.224;6.552;2023-05-02T03:51:08;8.40;99.90
51725;DHT22;37801;53.224;6.552;2023-05-02T03:53:34;8.50;99.90
51725;DHT22;37801;53.224;6.552;2023-05-02T03:56:00;8.50;99.90
51725;DHT22;37801;53.224;6.552;2023-05-02T03:58:26;8.40;99.90
51725;DHT22;37801;53.224;6.552;2023-05-02T04:00:52;8.40;99.90
51725;DHT22;37801;53.224;6.552;2023-05-02T04:03:19;8.40;99.90
51725;DHT22;37801;53.224;6.552;2023-05-02T04:05:45;8.30;99.90
51725;DHT22;37801;53.224;6.552;2023-05-02T04:08:11;8.40;99.90
51725;DHT22;37801;53.224;6.552;2023-05-02T04:10:38;8.40;99.90
51725;DHT22;37801;53.224;6.552;2023-05-02T04:13:03;8.30;99.90
51725;DHT22;37801;53.224;6.552;2023-05-02T04:15:32;8.30;99.90
51725;DHT22;37801;53.224;6.552;2023-05-02T04:17:58;8.30;99.90
51725;DHT22;37801;53.224;6.552;2023-05-02T04:20:24;8.30;99.90
51725;DHT22;37801;53.224;6.552;2023-05-02T04:22:50;8.30;99.90
51725;DHT22;37801;53.224;6.552;2023-05-02T04:25:16;8.30;99.90
51725;DHT22;37801;53.224;6.552;2023-05-02T04:27:42;8.30;99.90
51725;DHT22;37801;53.224;6.552;2023-05-02T04:30:08;8.30;99.90
51725;DHT22;37801;53.224;6.552;2023-05-02T04:32:35;8.30;99.90
51725;DHT22;37801;53.224;6.552;2023-05-02T04:35:01;8.20;99.90
51725;DHT22;37801;53.224;6.552;2023-05-02T04:37:27;8.30;99.90
51725;DHT22;37801;53.224;6.552;2023-05-02T04:39:53;8.20;99.90
51725;DHT22;37801;53.224;6.552;2023-05-02T04:42:18;8.30;99.90
51725;DHT22;37801;53.224;6.552;2023-05-02T04:44:44;8.40;99.90
51725;DHT22;37801;53.224;6.552;2023-05-02T04:47:10;8.30;99.90
51725;DHT22;37801;53.224;6.552;2023-05-02T04:49:36;8.40;99.90
51725;DHT22;37801;53.224;6.552;2023-05-02T04:52:02;8.40;99.90
51725;DHT22;37801;53.224;6.552;2023-05-02T04:54:28;8.30;99.90
51725;DHT22;37801;53.224;6.552;2023-05-02T04:56:54;8.30;99.90
51725;DHT22;37801;53.224;6.552;2023-05-02T04:59:19;8.30;99.90
51725;DHT22;37801;53.224;6.552;2023-05-02T05:01:45;8.30;99.90
51725;DHT22;37801;53.224;6.552;2023-05-02T05:04:11;8.40;99.90
51725;DHT22;37801;53.224;6.552;2023-05-02T05:06:36;8.40;99.90
51725;DHT22;37801;53.224;6.552;2023-05-02T05:09:02;8.40;99.90
51725;DHT22;37801;53.224;6.552;2023-05-02T05:11:28;8.40;99.90
51725;DHT22;37801;53.224;6.552;2023-05-02T05:13:54;8.40;99.90
51725;DHT22;37801;53.224;6.552;2023-05-02T05:16:19;8.40;99.90
51725;DHT22;37801;53.224;6.552;2023-05-02T05:18:45;8.40;99.90
51725;DHT22;37801;53.224;6.552;2023-05-02T05:21:11;8.50;99.90
51725;DHT22;37801;53.224;6.552;2023-05-02T05:23:37;8.50;99.90
51725;DHT22;37801;53.224;6.552;2023-05-02T05:28:35;8.40;99.90
51725;DHT22;37801;53.224;6.552;2023-05-02T05:31:09;8.40;99.90
51725;DHT22;37801;53.224;6.552;2023-05-02T05:33:35;8.40;99.90
51725;DHT22;37801;53.224;6.552;2023-05-02T05:36:09;8.40;99.90
51725;DHT22;37801;53.224;6.552;2023-05-02T05:38:35;8.40;99.90
51725;DHT22;37801;53.224;6.552;2023-05-02T05:41:01;8.40;99.90
51725;DHT22;37801;53.224;6.552;2023-05-02T05:43:28;8.40;99.90
51725;DHT22;37801;53.224;6.552;2023-05-02T05:45:54;8.50;99.90
51725;DHT22;37801;53.224;6.552;2023-05-02T05:48:21;8.50;99.90
51725;DHT22;37801;53.224;6.552;2023-05-02T05:50:47;8.50;99.90
51725;DHT22;37801;53.224;6.552;2023-05-02T05:53:14;8.60;99.90
51725;DHT22;37801;53.224;6.552;2023-05-02T05:55:40;8.50;99.90
51725;DHT22;37801;53.224;6.552;2023-05-02T05:58:06;8.50;99.90
51725;DHT22;37801;53.224;6.552;2023-05-02T06:00:38;8.60;99.90
51725;DHT22;37801;53.224;6.552;2023-05-02T06:03:04;8.50;95.30
51725;DHT22;37801;53.224;6.552;2023-05-02T06:05:31;8.50;98.10
51725;DHT22;37801;53.224;6.552;2023-05-02T06:07:57;8.50;95.10
51725;DHT22;37801;53.224;6.552;2023-05-02T06:10:23;8.50;91.10
51725;DHT22;37801;53.224;6.552;2023-05-02T06:12:49;8.60;94.10
51725;DHT22;37801;53.224;6.552;2023-05-02T06:15:15;8.60;87.20
51725;DHT22;37801;53.224;6.552;2023-05-02T06:17:41;8.60;99.90
51725;DHT22;37801;53.224;6.552;2023-05-02T06:20:07;8.70;91.50
51725;DHT22;37801;53.224;6.552;2023-05-02T06:22:34;8.70;96.60
51725;DHT22;37801;53.224;6.552;2023-05-02T06:25:00;8.70;87.20
51725;DHT22;37801;53.224;6.552;2023-05-02T06:27:26;8.70;94.70
51725;DHT22;37801;53.224;6.552;2023-05-02T06:29:52;8.70;63.90
51725;DHT22;37801;53.224;6.552;2023-05-02T06:32:18;8.80;92.30
51725;DHT22;37801;53.224;6.552;2023-05-02T06:34:44;8.70;62.80
51725;DHT22;37801;53.224;6.552;2023-05-02T06:37:10;8.80;82.50
51725;DHT22;37801;53.224;6.552;2023-05-02T06:39:36;8.80;99.90
51725;DHT22;37801;53.224;6.552;2023-05-02T06:42:01;8.80;99.90
51725;DHT22;37801;53.224;6.552;2023-05-02T06:44:27;8.90;95.90
51725;DHT22;37801;53.224;6.552;2023-05-02T06:46:53;8.90;99.90
51725;DHT22;37801;53.224;6.552;2023-05-02T06:49:20;8.90;61.10
51725;DHT22;37801;53.224;6.552;2023-05-02T06:51:46;9.00;99.90
51725;DHT22;37801;53.224;6.552;2023-05-02T06:54:12;8.90;32.00
51725;DHT22;37801;53.224;6.552;2023-05-02T06:56:39;9.00;57.70
51725;DHT22;37801;53.224;6.552;2023-05-02T06:59:05;9.00;45.30
51725;DHT22;37801;53.224;6.552;2023-05-02T07:01:31;9.10;36.20
51725;DHT22;37801;53.224;6.552;2023-05-02T07:03:56;9.20;61.40
51725;DHT22;37801;53.224;6.552;2023-05-02T07:06:23;9.20;48.10
51725;DHT22;37801;53.224;6.552;2023-05-02T07:08:48;9.20;26.60
51725;DHT22;37801;53.224;6.552;2023-05-02T07:11:14;9.20;22.60
51725;DHT22;37801;53.224;6.552;2023-05-02T07:13:40;9.30;18.40
51725;DHT22;37801;53.224;6.552;2023-05-02T07:16:06;9.20;13.00
51725;DHT22;37801;53.224;6.552;2023-05-02T07:18:32;9.20;19.40
51725;DHT22;37801;53.224;6.552;2023-05-02T07:20:58;9.10;23.30
51725;DHT22;37801;53.224;6.552;2023-05-02T07:23:25;9.20;28.30
51725;DHT22;37801;53.224;6.552;2023-05-02T07:25:51;9.20;17.70
51725;DHT22;37801;53.224;6.552;2023-05-02T07:28:17;9.20;20.30
51725;DHT22;37801;53.224;6.552;2023-05-02T07:30:43;9.20;18.20
51725;DHT22;37801;53.224;6.552;2023-05-02T07:33:09;9.30;28.60
51725;DHT22;37801;53.224;6.552;2023-05-02T07:35:34;9.40;51.00
51725;DHT22;37801;53.224;6.552;2023-05-02T07:38:00;9.40;23.60
51725;DHT22;37801;53.224;6.552;2023-05-02T07:40:26;9.50;23.20
51725;DHT22;37801;53.224;6.552;2023-05-02T07:42:52;9.50;16.30
51725;DHT22;37801;53.224;6.552;2023-05-02T07:45:18;9.50;1.00
51725;DHT22;37801;53.224;6.552;2023-05-02T07:47:44;9.60;1.00
51725;DHT22;37801;53.224;6.552;2023-05-02T07:50:11;9.60;1.00
51725;DHT22;37801;53.224;6.552;2023-05-02T07:52:37;9.70;8.50
51725;DHT22;37801;53.224;6.552;2023-05-02T07:55:02;9.80;1.00
51725;DHT22;37801;53.224;6.552;2023-05-02T07:57:29;9.80;25.80
51725;DHT22;37801;53.224;6.552;2023-05-02T07:59:55;10.00;22.50
51725;DHT22;37801;53.224;6.552;2023-05-02T08:02:22;10.00;10.80
51725;DHT22;37801;53.224;6.552;2023-05-02T08:04:48;10.10;11.00
51725;DHT22;37801;53.224;6.552;2023-05-02T08:07:14;10.10;17.20
51725;DHT22;37801;53.224;6.552;2023-05-02T08:09:40;10.00;3.40
51725;DHT22;37801;53.224;6.552;2023-05-02T08:12:06;10.00;12.60
51725;DHT22;37801;53.224;6.552;2023-05-02T08:14:32;10.00;37.80
51725;DHT22;37801;53.224;6.552;2023-05-02T08:16:58;10.00;7.20
51725;DHT22;37801;53.224;6.552;2023-05-02T08:19:24;10.00;21.20
51725;DHT22;37801;53.224;6.552;2023-05-02T08:21:50;9.90;1.00
51725;DHT22;37801;53.224;6.552;2023-05-02T08:24:17;10.00;1.00
51725;DHT22;37801;53.224;6.552;2023-05-02T08:26:43;10.10;2.90
51725;DHT22;37801;53.224;6.552;2023-05-02T08:29:09;10.00;1.00
51725;DHT22;37801;53.224;6.552;2023-05-02T08:31:36;10.10;1.00
51725;DHT22;37801;53.224;6.552;2023-05-02T08:34:02;10.10;1.00
51725;DHT22;37801;53.224;6.552;2023-05-02T08:36:28;10.20;1.00
51725;DHT22;37801;53.224;6.552;2023-05-02T08:38:54;10.20;1.00
51725;DHT22;37801;53.224;6.552;2023-05-02T08:41:20;10.30;1.00
51725;DHT22;37801;53.224;6.552;2023-05-02T08:43:46;10.30;1.00
51725;DHT22;37801;53.224;6.552;2023-05-02T08:46:13;10.30;1.00
51725;DHT22;37801;53.224;6.552;2023-05-02T08:48:41;10.40;1.00
51725;DHT22;37801;53.224;6.552;2023-05-02T08:51:09;10.30;1.00
51725;DHT22;37801;53.224;6.552;2023-05-02T08:53:36;10.30;1.00
51725;DHT22;37801;53.224;6.552;2023-05-02T08:56:02;10.30;1.00
51725;DHT22;37801;53.224;6.552;2023-05-02T08:58:28;10.40;1.00
51725;DHT22;37801;53.224;6.552;2023-05-02T09:00:56;10.50;4.50
51725;DHT22;37801;53.224;6.552;2023-05-02T09:03:29;10.70;1.00
51725;DHT22;37801;53.224;6.552;2023-05-02T09:06:05;10.70;1.00
51725;DHT22;37801;53.224;6.552;2023-05-02T09:08:32;10.70;1.00
51725;DHT22;37801;53.224;6.552;2023-05-02T09:10:58;10.70;1.00
51725;DHT22;37801;53.224;6.552;2023-05-02T09:13:33;10.70;1.00
51725;DHT22;37801;53.224;6.552;2023-05-02T09:18:34;10.60;1.00
51725;DHT22;37801;53.224;6.552;2023-05-02T09:21:07;10.60;5.80
51725;DHT22;37801;53.224;6.552;2023-05-02T09:24:13;10.40;9.20
51725;DHT22;37801;53.224;6.552;2023-05-02T09:26:30;10.30;19.00
51725;DHT22;37801;53.224;6.552;2023-05-02T09:29:00;10.20;28.20
51725;DHT22;37801;53.224;6.552;2023-05-02T09:31:31;10.20;36.10
51725;DHT22;37801;53.224;6.552;2023-05-02T09:34:12;10.20;23.50
51725;DHT22;37801;53.224;6.552;2023-05-02T09:39:14;10.40;18.60
51725;DHT22;37801;53.224;6.552;2023-05-02T09:44:12;10.60;14.60
51725;DHT22;37801;53.224;6.552;2023-05-02T09:46:43;10.70;10.90
51725;DHT22;37801;53.224;6.552;2023-05-02T09:49:09;10.70;17.70
51725;DHT22;37801;53.224;6.552;2023-05-02T09:51:35;10.80;1.00
51725;DHT22;37801;53.224;6.552;2023-05-02T09:54:01;10.80;5.90
51725;DHT22;37801;53.224;6.552;2023-05-02T09:56:27;10.80;12.80
51725;DHT22;37801;53.224;6.552;2023-05-02T09:59:15;10.80;7.20
51725;DHT22;37801;53.224;6.552;2023-05-02T10:01:41;10.80;11.10
51725;DHT22;37801;53.224;6.552;2023-05-02T10:04:11;10.90;14.70
51725;DHT22;37801;53.224;6.552;2023-05-02T10:06:44;10.90;7.90
51725;DHT22;37801;53.224;6.552;2023-05-02T10:09:10;10.90;1.00
51725;DHT22;37801;53.224;6.552;2023-05-02T10:11:44;10.80;1.00
51725;DHT22;37801;53.224;6.552;2023-05-02T10:14:11;10.90;1.00
51725;DHT22;37801;53.224;6.552;2023-05-02T10:17:00;11.00;1.00
51725;DHT22;37801;53.224;6.552;2023-05-02T10:19:30;11.20;1.00
51725;DHT22;37801;53.224;6.552;2023-05-02T10:21:58;11.20;1.00
51725;DHT22;37801;53.224;6.552;2023-05-02T10:24:24;11.30;1.00
51725;DHT22;37801;53.224;6.552;2023-05-02T10:26:51;11.30;1.00
51725;DHT22;37801;53.224;6.552;2023-05-02T10:29:18;11.40;1.00
51725;DHT22;37801;53.224;6.552;2023-05-02T10:31:45;11.30;1.00
51725;DHT22;37801;53.224;6.552;2023-05-02T10:34:11;11.30;1.00
51725;DHT22;37801;53.224;6.552;2023-05-02T10:36:37;11.40;1.00
51725;DHT22;37801;53.224;6.552;2023-05-02T10:39:03;11.40;1.00
51725;DHT22;37801;53.224;6.552;2023-05-02T10:41:31;11.40;1.00
51725;DHT22;37801;53.224;6.552;2023-05-02T10:43:58;11.40;1.00
51725;DHT22;37801;53.224;6.552;2023-05-02T10:46:38;11.40;12.90
51725;DHT22;37801;53.224;6.552;2023-05-02T10:49:09;11.20;21.90
51725;DHT22;37801;53.224;6.552;2023-05-02T10:51:40;11.10;13.20
51725;DHT22;37801;53.224;6.552;2023-05-02T10:54:22;11.00;69.70
51725;DHT22;37801;53.224;6.552;2023-05-02T10:57:14;10.90;40.00
51725;DHT22;37801;53.224;6.552;2023-05-02T10:59:41;10.80;30.30
51725;DHT22;37801;53.224;6.552;2023-05-02T11:07:31;10.70;41.80
51725;DHT22;37801;53.224;6.552;2023-05-02T11:12:45;10.80;38.50
51725;DHT22;37801;53.224;6.552;2023-05-02T11:15:12;10.70;6.80
51725;DHT22;37801;53.224;6.552;2023-05-02T11:17:57;10.90;34.70
51725;DHT22;37801;53.224;6.552;2023-05-02T11:20:23;11.00;19.30
51725;DHT22;37801;53.224;6.552;2023-05-02T11:22:49;11.00;5.10
51725;DHT22;37801;53.224;6.552;2023-05-02T11:25:29;11.10;10.30
51725;DHT22;37801;53.224;6.552;2023-05-02T11:27:55;11.30;18.70
51725;DHT22;37801;53.224;6.552;2023-05-02T11:30:42;11.50;21.50
51725;DHT22;37801;53.224;6.552;2023-05-02T11:35:34;11.60;11.70
51725;DHT22;37801;53.224;6.552;2023-05-02T11:38:07;11.50;1.00
51725;DHT22;37801;53.224;6.552;2023-05-02T11:40:33;11.40;1.00
51725;DHT22;37801;53.224;6.552;2023-05-02T11:42:59;11.40;21.00
51725;DHT22;37801;53.224;6.552;2023-05-02T11:45:32;11.40;2.90
51725;DHT22;37801;53.224;6.552;2023-05-02T11:47:59;11.40;2.20
51725;DHT22;37801;53.224;6.552;2023-05-02T11:50:26;11.50;4.50
51725;DHT22;37801;53.224;6.552;2023-05-02T11:52:52;11.40;1.00
51725;DHT22;37801;53.224;6.552;2023-05-02T11:55:18;11.40;1.00
51725;DHT22;37801;53.224;6.552;2023-05-02T11:57:43;11.40;1.00
51725;DHT22;37801;53.224;6.552;2023-05-02T12:00:10;11.20;1.00
51725;DHT22;37801;53.224;6.552;2023-05-02T12:02:41;11.20;1.00
51725;DHT22;37801;53.224;6.552;2023-05-02T12:05:12;11.30;1.00
51725;DHT22;37801;53.224;6.552;2023-05-02T12:07:38;11.40;1.00
51725;DHT22;37801;53.224;6.552;2023-05-02T12:10:06;11.40;1.00
51725;DHT22;37801;53.224;6.552;2023-05-02T12:12:32;11.30;1.00
51725;DHT22;37801;53.224;6.552;2023-05-02T12:15:02;11.20;1.00
51725;DHT22;37801;53.224;6.552;2023-05-02T12:17:28;11.10;1.00
51725;DHT22;37801;53.224;6.552;2023-05-02T12:19:54;11.10;1.00
51725;DHT22;37801;53.224;6.552;2023-05-02T12:22:22;11.10;1.00
51725;DHT22;37801;53.224;6.552;2023-05-02T12:24:49;11.10;1.00
51725;DHT22;37801;53.224;6.552;2023-05-02T12:27:16;11.10;1.00
51725;DHT22;37801;53.224;6.552;2023-05-02T12:29:46;11.00;1.00
51725;DHT22;37801;53.224;6.552;2023-05-02T12:32:13;11.00;1.00
51725;DHT22;37801;53.224;6.552;2023-05-02T12:34:40;11.00;1.00
51725;DHT22;37801;53.224;6.552;2023-05-02T12:37:07;11.10;1.00
51725;DHT22;37801;53.224;6.552;2023-05-02T12:39:42;11.10;1.00
51725;DHT22;37801;53.224;6.552;2023-05-02T12:42:12;11.10;1.00
51725;DHT22;37801;53.224;6.552;2023-05-02T12:44:39;11.20;1.00
51725;DHT22;37801;53.224;6.552;2023-05-02T12:47:06;11.20;1.00
51725;DHT22;37801;53.224;6.552;2023-05-02T12:49:46;11.30;1.00
51725;DHT22;37801;53.224;6.552;2023-05-02T12:52:12;11.30;1.00
51725;DHT22;37801;53.224;6.552;2023-05-02T12:54:38;11.40;1.00
51725;DHT22;37801;53.224;6.552;2023-05-02T12:57:04;11.50;15.70
51725;DHT22;37801;53.224;6.552;2023-05-02T12:59:31;11.50;34.80
51725;DHT22;37801;53.224;6.552;2023-05-02T13:01:57;11.50;26.30
51725;DHT22;37801;53.224;6.552;2023-05-02T13:04:37;11.50;40.50
51725;DHT22;37801;53.224;6.552;2023-05-02T13:07:06;11.40;29.20
51725;DHT22;37801;53.224;6.552;2023-05-02T13:09:32;11.40;55.90
51725;DHT22;37801;53.224;6.552;2023-05-02T13:11:58;11.30;49.00
51725;DHT22;37801;53.224;6.552;2023-05-02T13:14:24;11.30;23.10
51725;DHT22;37801;53.224;6.552;2023-05-02T13:16:50;11.40;31.20
51725;DHT22;37801;53.224;6.552;2023-05-02T13:19:20;11.30;16.80
51725;DHT22;37801;53.224;6.552;2023-05-02T13:21:46;11.20;13.90
51725;DHT22;37801;53.224;6.552;2023-05-02T13:24:12;11.30;10.60
51725;DHT22;37801;53.224;6.552;2023-05-02T13:26:38;11.40;34.00
51725;DHT22;37801;53.224;6.552;2023-05-02T13:29:03;11.40;40.70
51725;DHT22;37801;53.224;6.552;2023-05-02T13:31:29;11.50;39.70
51725;DHT22;37801;53.224;6.552;2023-05-02T13:33:55;11.60;34.50
51725;DHT22;37801;53.224;6.552;2023-05-02T13:36:21;11.70;35.70
51725;DHT22;37801;53.224;6.552;2023-05-02T13:38:48;11.50;4.90
51725;DHT22;37801;53.224;6.552;2023-05-02T13:41:14;11.40;1.00
51725;DHT22;37801;53.224;6.552;2023-05-02T13:43:40;11.30;1.00
51725;DHT22;37801;53.224;6.552;2023-05-02T13:46:06;11.30;11.30
51725;DHT22;37801;53.224;6.552;2023-05-02T13:48:32;11.30;3.30
51725;DHT22;37801;53.224;6.552;2023-05-02T13:50:58;11.40;9.00
51725;DHT22;37801;53.224;6.552;2023-05-02T13:53:23;11.50;22.80
51725;DHT22;37801;53.224;6.552;2023-05-02T13:55:49;11.40;1.00
51725;DHT22;37801;53.224;6.552;2023-05-02T13:58:15;11.50;28.80
51725;DHT22;37801;53.224;6.552;2023-05-02T14:00:40;11.60;1.00
51725;DHT22;37801;53.224;6.552;2023-05-02T14:03:06;11.60;1.00
51725;DHT22;37801;53.224;6.552;2023-05-02T14:05:32;11.70;1.00
51725;DHT22;37801;53.224;6.552;2023-05-02T14:07:58;11.70;1.00
51725;DHT22;37801;53.224;6.552;2023-05-02T14:10:23;11.70;1.00
51725;DHT22;37801;53.224;6.552;2023-05-02T14:12:49;11.60;1.00
51725;DHT22;37801;53.224;6.552;2023-05-02T14:15:17;11.60;1.00
51725;DHT22;37801;53.224;6.552;2023-05-02T14:17:43;11.70;3.70
51725;DHT22;37801;53.224;6.552;2023-05-02T14:20:09;11.70;1.00
51725;DHT22;37801;53.224;6.552;2023-05-02T14:22:35;11.60;1.00
51725;DHT22;37801;53.224;6.552;2023-05-02T14:25:00;11.60;1.00
51725;DHT22;37801;53.224;6.552;2023-05-02T14:27:26;11.40;1.10
51725;DHT22;37801;53.224;6.552;2023-05-02T14:29:52;11.30;16.10
51725;DHT22;37801;53.224;6.552;2023-05-02T14:32:18;11.20;18.30
51725;DHT22;37801;53.224;6.552;2023-05-02T14:34:43;11.10;7.70
51725;DHT22;37801;53.224;6.552;2023-05-02T14:37:09;11.00;9.40
51725;DHT22;37801;53.224;6.552;2023-05-02T14:39:35;11.00;26.60
51725;DHT22;37801;53.224;6.552;2023-05-02T14:42:01;11.00;26.80
51725;DHT22;37801;53.224;6.552;2023-05-02T14:44:29;11.00;24.50
51725;DHT22;37801;53.224;6.552;2023-05-02T14:46:55;11.10;39.70
51725;DHT22;37801;53.224;6.552;2023-05-02T14:49:21;11.10;18.70
51725;DHT22;37801;53.224;6.552;2023-05-02T14:51:47;11.00;20.20
51725;DHT22;37801;53.224;6.552;2023-05-02T14:54:13;11.00;18.00
51725;DHT22;37801;53.224;6.552;2023-05-02T14:56:41;11.00;18.60
51725;DHT22;37801;53.224;6.552;2023-05-02T14:59:07;11.00;43.00
51725;DHT22;37801;53.224;6.552;2023-05-02T15:01:33;11.00;22.30
51725;DHT22;37801;53.224;6.552;2023-05-02T15:03:58;10.90;15.10
51725;DHT22;37801;53.224;6.552;2023-05-02T15:06:28;10.90;14.70
51725;DHT22;37801;53.224;6.552;2023-05-02T15:08:55;10.80;3.00
51725;DHT22;37801;53.224;6.552;2023-05-02T15:11:21;10.80;5.80
51725;DHT22;37801;53.224;6.552;2023-05-02T15:13:47;10.90;11.80
51725;DHT22;37801;53.224;6.552;2023-05-02T15:16:12;10.90;18.40
51725;DHT22;37801;53.224;6.552;2023-05-02T15:18:38;10.90;15.60
51725;DHT22;37801;53.224;6.552;2023-05-02T15:21:04;10.90;21.90
51725;DHT22;37801;53.224;6.552;2023-05-02T15:23:30;11.00;5.30
51725;DHT22;37801;53.224;6.552;2023-05-02T15:25:56;10.90;12.10
51725;DHT22;37801;53.224;6.552;2023-05-02T15:28:21;11.00;15.40
51725;DHT22;37801;53.224;6.552;2023-05-02T15:30:47;10.90;4.60
51725;DHT22;37801;53.224;6.552;2023-05-02T15:33:13;11.00;11.20
51725;DHT22;37801;53.224;6.552;2023-05-02T15:35:51;11.00;1.00
51725;DHT22;37801;53.224;6.552;2023-05-02T15:38:17;11.00;3.00
51725;DHT22;37801;53.224;6.552;2023-05-02T15:40:43;11.00;1.00
51725;DHT22;37801;53.224;6.552;2023-05-02T15:43:09;11.00;2.20
51725;DHT22;37801;53.224;6.552;2023-05-02T15:45:34;11.00;1.00
51725;DHT22;37801;53.224;6.552;2023-05-02T15:48:00;10.90;1.00
51725;DHT22;37801;53.224;6.552;2023-05-02T15:50:26;10.90;1.00
51725;DHT22;37801;53.224;6.552;2023-05-02T15:52:52;10.90;1.00
51725;DHT22;37801;53.224;6.552;2023-05-02T15:55:17;10.90;1.00
51725;DHT22;37801;53.224;6.552;2023-05-02T15:57:43;10.80;1.00
51725;DHT22;37801;53.224;6.552;2023-05-02T16:00:09;10.80;1.00
51725;DHT22;37801;53.224;6.552;2023-05-02T16:02:41;10.80;1.00
51725;DHT22;37801;53.224;6.552;2023-05-02T16:05:07;10.70;5.00
51725;DHT22;37801;53.224;6.552;2023-05-02T16:07:32;10.80;11.80
51725;DHT22;37801;53.224;6.552;2023-05-02T16:09:58;10.70;23.20
51725;DHT22;37801;53.224;6.552;2023-05-02T16:12:24;10.80;21.50
51725;DHT22;37801;53.224;6.552;2023-05-02T16:14:50;10.80;17.10
51725;DHT22;37801;53.224;6.552;2023-05-02T16:17:16;10.90;38.60
51725;DHT22;37801;53.224;6.552;2023-05-02T16:19:42;10.90;11.80
51725;DHT22;37801;53.224;6.552;2023-05-02T16:22:07;10.80;1.90
51725;DHT22;37801;53.224;6.552;2023-05-02T16:24:33;10.80;35.80